Greenville, MS (38701)

11:03 PM CDT on July 25, 2014 (GMT -0500)
Mid Delta Regional (KGLH) Elev 131 ft | 33.48 °N, 90.99 °W | Change Station

Current weather conditions updated 10 minutes ago

Clear
Clear
73 °F
Feels Like 73 °F
N
4
Wind Variable Wind from SE

Tomorrow is forecast to be Warmer than today.

Today
High -- | Low -- °F
--% Chance of Precip.
Yesterday
High -- | Low -- °F
Precip. -- in
6:12 AM 8:08 PM
Waning Crescent, 1% visible
Pressure 30.00 in
Visibility 10.0 miles
Clouds Clear
Dew Point 70 °F
Humidity 90%
Rainfall 0.00 in
Snow Depth Not available.
UV 0 out of 12
Pollen 3.50 out of 12
Air Quality Not available.
Flu Activity Not available.
METAR KGLH 260353Z AUTO 14003KT 10SM CLR 23/21 A2998 RMK AO2 SLP158 T02280211

More Conditions Fewer Conditions

Pressure 30.00 in
Visibility 10.0 miles
Clouds Clear
Dew Point 70 °F
Humidity 90%
Rainfall 0.00 in
Snow Depth Not available.
UV 0 out of 12
Pollen 3.50 out of 12
Air Quality Not available.
Flu Activity Not available.
METAR KGLH 260353Z AUTO 14003KT 10SM CLR 23/21 A2998 RMK AO2 SLP158 T02280211

More Conditions Fewer Conditions

10-Day Weather Forecast

Almanac

Astronomy

Jul. 25, 2014 Rise Set
Actual Time 6:12 AM CDT 8:08 PM CDT
Civil Twilight 5:44 AM CDT 8:36 PM CDT
Nautical Twilight 5:10 AM CDT 9:09 PM CDT
Astronomical Twilight 4:35 AM CDT 9:44 PM CDT
Moon 5:09 AM CDT (7/25) 7:08 PM CDT (7/25)
Length of Visible Light 14h 51m
Length of Day
13h 56m
Tomorrow will be 1m 23s shorter.
Waning Crescent, 1% of the Moon is Illuminated
Jul 26
Waning Crescent
Jul 26
New
Aug 3
First Quarter
Aug 10
Full
Aug 17
Last Quarter

Today's Extremes

State Highs State Lows

Community

WunderPhotos

Upload Photos

1,737,504 photos uploaded!

Nearby

Snow Depth

Station Depth Elevation
No new snow has been reported.

Earthquake Activity

City Distance Mag. Time & Date
No recent earthquake activity has been reported nearby.
Minimum magnitude displayed is 2.5.

Coastal Water Temperatures

Place Temperature
No Stations Reporting

Nearby Weather Stations

Station Location Temp. Heat Index Dew Point Humidity Wind Precip. Elev Updated Type
MesoWest NORTH ISSAQUENA , Glen Allan, MS 74 °F 72 °F 72 °F 93% ESE  at  0 mph 0.00 in / hr 111 ft 10:00 PM CDT MADIS
MesoWest BEASLEY LAKE , Inverness, MS 72 °F - 71 °F 96% SSW  at  1 mph 0.00 in / hr 115 ft 10:00 PM CDT MADIS
MesoWest SCOTT , Scott, MS 75 °F 74 °F 73 °F 91% South  at  1 mph 0.00 in / hr 165 ft 10:00 PM CDT MADIS

Show More Stations Show Fewer Stations